sensor_id;sensor_type;location;lat;lon;timestamp;P1;durP1;ratioP1;P2;durP2;ratioP2
70071;SDS011;57434;42.794;23.302;2023-04-01T00:00:46;12.97;;;5.57;;
70071;SDS011;57434;42.794;23.302;2023-04-01T00:01:48;13.18;;;5.72;;
70071;SDS011;57434;42.794;23.302;2023-04-01T00:02:49;11.02;;;5.78;;
70071;SDS011;57434;42.794;23.302;2023-04-01T00:03:51;12.55;;;6.28;;
70071;SDS011;57434;42.794;23.302;2023-04-01T00:04:53;15.45;;;5.93;;
70071;SDS011;57434;42.794;23.302;2023-04-01T00:05:55;12.18;;;6.18;;
70071;SDS011;57434;42.794;23.302;2023-04-01T00:06:58;12.95;;;5.60;;
70071;SDS011;57434;42.794;23.302;2023-04-01T00:08:00;13.80;;;5.80;;
70071;SDS011;57434;42.794;23.302;2023-04-01T00:09:02;12.18;;;5.93;;
70071;SDS011;57434;42.794;23.302;2023-04-01T00:10:06;14.02;;;5.55;;
70071;SDS011;57434;42.794;23.302;2023-04-01T00:11:09;12.10;;;5.63;;
70071;SDS011;57434;42.794;23.302;2023-04-01T00:12:11;11.93;;;5.18;;
70071;SDS011;57434;42.794;23.302;2023-04-01T00:13:13;13.48;;;5.68;;
70071;SDS011;57434;42.794;23.302;2023-04-01T00:14:15;12.68;;;5.78;;
70071;SDS011;57434;42.794;23.302;2023-04-01T00:15:17;12.98;;;6.03;;
70071;SDS011;57434;42.794;23.302;2023-04-01T00:16:19;15.07;;;6.50;;
70071;SDS011;57434;42.794;23.302;2023-04-01T00:17:22;15.57;;;6.78;;
70071;SDS011;57434;42.794;23.302;2023-04-01T00:18:24;18.70;;;6.90;;
70071;SDS011;57434;42.794;23.302;2023-04-01T00:19:26;15.50;;;6.53;;
70071;SDS011;57434;42.794;23.302;2023-04-01T00:20:28;18.50;;;7.40;;
70071;SDS011;57434;42.794;23.302;2023-04-01T00:21:30;16.10;;;7.27;;
70071;SDS011;57434;42.794;23.302;2023-04-01T00:22:31;15.38;;;6.65;;
70071;SDS011;57434;42.794;23.302;2023-04-01T00:23:33;18.42;;;8.15;;
70071;SDS011;57434;42.794;23.302;2023-04-01T00:24:35;14.45;;;6.13;;
70071;SDS011;57434;42.794;23.302;2023-04-01T00:25:37;17.05;;;6.88;;
70071;SDS011;57434;42.794;23.302;2023-04-01T00:26:38;15.25;;;7.38;;
70071;SDS011;57434;42.794;23.302;2023-04-01T00:27:40;15.65;;;7.80;;
70071;SDS011;57434;42.794;23.302;2023-04-01T00:28:42;18.17;;;7.45;;
70071;SDS011;57434;42.794;23.302;2023-04-01T00:29:47;20.02;;;7.45;;
70071;SDS011;57434;42.794;23.302;2023-04-01T00:30:49;18.13;;;7.43;;
70071;SDS011;57434;42.794;23.302;2023-04-01T00:31:50;12.83;;;7.07;;
70071;SDS011;57434;42.794;23.302;2023-04-01T00:32:52;17.15;;;7.68;;
70071;SDS011;57434;42.794;23.302;2023-04-01T00:33:54;18.08;;;8.05;;
70071;SDS011;57434;42.794;23.302;2023-04-01T00:34:56;18.85;;;8.23;;
70071;SDS011;57434;42.794;23.302;2023-04-01T00:36:08;19.48;;;7.32;;
70071;SDS011;57434;42.794;23.302;2023-04-01T00:37:14;15.10;;;7.35;;
70071;SDS011;57434;42.794;23.302;2023-04-01T00:38:15;16.02;;;7.38;;
70071;SDS011;57434;42.794;23.302;2023-04-01T00:39:17;18.23;;;8.13;;
70071;SDS011;57434;42.794;23.302;2023-04-01T00:40:33;19.70;;;8.25;;
70071;SDS011;57434;42.794;23.302;2023-04-01T00:41:36;17.08;;;7.30;;
70071;SDS011;57434;42.794;23.302;2023-04-01T00:42:38;17.90;;;7.43;;
70071;SDS011;57434;42.794;23.302;2023-04-01T00:43:41;20.92;;;7.93;;
70071;SDS011;57434;42.794;23.302;2023-04-01T00:44:45;17.90;;;7.95;;
70071;SDS011;57434;42.794;23.302;2023-04-01T00:45:51;20.35;;;8.73;;
70071;SDS011;57434;42.794;23.302;2023-04-01T00:46:53;16.45;;;8.38;;
70071;SDS011;57434;42.794;23.302;2023-04-01T00:47:55;21.25;;;8.98;;
70071;SDS011;57434;42.794;23.302;2023-04-01T00:49:00;19.23;;;8.85;;
70071;SDS011;57434;42.794;23.302;2023-04-01T00:50:02;20.10;;;8.52;;
70071;SDS011;57434;42.794;23.302;2023-04-01T00:51:04;23.02;;;10.20;;
70071;SDS011;57434;42.794;23.302;2023-04-01T00:52:11;23.27;;;10.13;;
70071;SDS011;57434;42.794;23.302;2023-04-01T00:53:16;26.87;;;11.00;;
70071;SDS011;57434;42.794;23.302;2023-04-01T00:54:20;29.70;;;11.40;;
70071;SDS011;57434;42.794;23.302;2023-04-01T00:55:24;23.55;;;11.00;;
70071;SDS011;57434;42.794;23.302;2023-04-01T00:56:35;29.50;;;10.85;;
70071;SDS011;57434;42.794;23.302;2023-04-01T00:57:40;22.40;;;9.90;;
70071;SDS011;57434;42.794;23.302;2023-04-01T00:58:46;22.52;;;10.80;;
70071;SDS011;57434;42.794;23.302;2023-04-01T00:59:53;22.48;;;9.75;;
70071;SDS011;57434;42.794;23.302;2023-04-01T01:00:56;23.92;;;10.10;;
70071;SDS011;57434;42.794;23.302;2023-04-01T01:02:01;25.63;;;10.60;;
70071;SDS011;57434;42.794;23.302;2023-04-01T01:03:04;24.20;;;9.98;;
70071;SDS011;57434;42.794;23.302;2023-04-01T01:04:06;22.03;;;9.73;;
70071;SDS011;57434;42.794;23.302;2023-04-01T01:05:08;23.80;;;11.02;;
70071;SDS011;57434;42.794;23.302;2023-04-01T01:06:17;19.23;;;8.68;;
70071;SDS011;57434;42.794;23.302;2023-04-01T01:10:45;22.80;;;9.07;;
70071;SDS011;57434;42.794;23.302;2023-04-01T01:11:52;20.50;;;9.15;;
70071;SDS011;57434;42.794;23.302;2023-04-01T01:13:04;25.30;;;10.30;;
70071;SDS011;57434;42.794;23.302;2023-04-01T01:14:19;21.60;;;9.50;;
70071;SDS011;57434;42.794;23.302;2023-04-01T01:15:44;22.45;;;9.52;;
70071;SDS011;57434;42.794;23.302;2023-04-01T01:16:51;25.03;;;10.43;;
70071;SDS011;57434;42.794;23.302;2023-04-01T01:19:07;24.95;;;11.80;;
70071;SDS011;57434;42.794;23.302;2023-04-01T01:26:39;25.35;;;12.57;;
70071;SDS011;57434;42.794;23.302;2023-04-01T01:27:46;29.02;;;12.70;;
70071;SDS011;57434;42.794;23.302;2023-04-01T01:29:14;28.05;;;12.15;;
70071;SDS011;57434;42.794;23.302;2023-04-01T01:30:35;24.43;;;11.20;;
70071;SDS011;57434;42.794;23.302;2023-04-01T01:36:20;24.67;;;11.15;;
70071;SDS011;57434;42.794;23.302;2023-04-01T01:37:23;26.13;;;11.35;;
70071;SDS011;57434;42.794;23.302;2023-04-01T01:38:29;23.42;;;11.68;;
70071;SDS011;57434;42.794;23.302;2023-04-01T01:39:34;26.80;;;12.85;;
70071;SDS011;57434;42.794;23.302;2023-04-01T01:40:38;25.23;;;12.13;;
70071;SDS011;57434;42.794;23.302;2023-04-01T01:41:43;24.80;;;12.13;;
70071;SDS011;57434;42.794;23.302;2023-04-01T01:42:50;29.17;;;11.93;;
70071;SDS011;57434;42.794;23.302;2023-04-01T01:43:54;24.48;;;10.18;;
70071;SDS011;57434;42.794;23.302;2023-04-01T01:44:59;23.65;;;10.68;;
70071;SDS011;57434;42.794;23.302;2023-04-01T01:46:04;20.02;;;10.73;;
70071;SDS011;57434;42.794;23.302;2023-04-01T01:47:10;27.75;;;11.73;;
70071;SDS011;57434;42.794;23.302;2023-04-01T01:48:13;26.70;;;11.68;;
70071;SDS011;57434;42.794;23.302;2023-04-01T01:49:18;22.48;;;11.23;;
70071;SDS011;57434;42.794;23.302;2023-04-01T01:50:21;20.88;;;9.70;;
70071;SDS011;57434;42.794;23.302;2023-04-01T01:51:24;23.05;;;11.40;;
70071;SDS011;57434;42.794;23.302;2023-04-01T01:52:28;22.08;;;10.68;;
70071;SDS011;57434;42.794;23.302;2023-04-01T01:53:30;19.33;;;10.27;;
70071;SDS011;57434;42.794;23.302;2023-04-01T01:54:32;23.77;;;10.98;;
70071;SDS011;57434;42.794;23.302;2023-04-01T01:55:34;20.60;;;11.18;;
70071;SDS011;57434;42.794;23.302;2023-04-01T01:56:39;19.38;;;10.13;;
70071;SDS011;57434;42.794;23.302;2023-04-01T01:57:44;20.77;;;10.13;;
70071;SDS011;57434;42.794;23.302;2023-04-01T01:58:50;19.77;;;10.73;;
70071;SDS011;57434;42.794;23.302;2023-04-01T01:59:56;25.20;;;10.48;;
70071;SDS011;57434;42.794;23.302;2023-04-01T02:01:03;21.98;;;10.10;;
70071;SDS011;57434;42.794;23.302;2023-04-01T02:02:07;20.20;;;9.43;;
70071;SDS011;57434;42.794;23.302;2023-04-01T02:03:12;20.23;;;10.15;;
70071;SDS011;57434;42.794;23.302;2023-04-01T02:04:15;21.43;;;10.30;;
70071;SDS011;57434;42.794;23.302;2023-04-01T02:05:24;19.27;;;9.50;;
70071;SDS011;57434;42.794;23.302;2023-04-01T02:06:29;23.70;;;11.02;;
70071;SDS011;57434;42.794;23.302;2023-04-01T02:07:33;24.35;;;10.18;;
70071;SDS011;57434;42.794;23.302;2023-04-01T02:08:59;21.85;;;10.70;;
70071;SDS011;57434;42.794;23.302;2023-04-01T02:10:04;23.95;;;9.32;;
70071;SDS011;57434;42.794;23.302;2023-04-01T02:11:10;20.08;;;10.27;;
70071;SDS011;57434;42.794;23.302;2023-04-01T02:12:14;22.38;;;10.48;;
70071;SDS011;57434;42.794;23.302;2023-04-01T02:13:21;25.17;;;10.75;;
70071;SDS011;57434;42.794;23.302;2023-04-01T02:15:14;19.55;;;9.73;;
70071;SDS011;57434;42.794;23.302;2023-04-01T02:16:01;21.50;;;9.83;;
70071;SDS011;57434;42.794;23.302;2023-04-01T02:17:08;22.17;;;9.07;;
70071;SDS011;57434;42.794;23.302;2023-04-01T02:18:14;18.90;;;9.27;;
70071;SDS011;57434;42.794;23.302;2023-04-01T02:19:17;20.75;;;9.43;;
70071;SDS011;57434;42.794;23.302;2023-04-01T02:20:20;22.30;;;8.98;;
70071;SDS011;57434;42.794;23.302;2023-04-01T02:21:24;15.48;;;8.55;;
70071;SDS011;57434;42.794;23.302;2023-04-01T02:22:30;18.05;;;9.85;;
70071;SDS011;57434;42.794;23.302;2023-04-01T02:23:35;18.15;;;9.25;;
70071;SDS011;57434;42.794;23.302;2023-04-01T02:24:39;15.93;;;8.32;;
70071;SDS011;57434;42.794;23.302;2023-04-01T02:25:43;16.88;;;8.80;;
70071;SDS011;57434;42.794;23.302;2023-04-01T02:26:46;20.20;;;8.73;;
70071;SDS011;57434;42.794;23.302;2023-04-01T02:27:48;17.08;;;8.30;;
70071;SDS011;57434;42.794;23.302;2023-04-01T02:28:50;17.70;;;8.35;;
70071;SDS011;57434;42.794;23.302;2023-04-01T02:29:54;15.07;;;8.02;;
70071;SDS011;57434;42.794;23.302;2023-04-01T02:30:55;17.83;;;8.35;;
70071;SDS011;57434;42.794;23.302;2023-04-01T02:32:00;15.50;;;7.78;;
70071;SDS011;57434;42.794;23.302;2023-04-01T02:33:04;18.65;;;8.63;;
70071;SDS011;57434;42.794;23.302;2023-04-01T02:34:07;16.88;;;8.43;;
70071;SDS011;57434;42.794;23.302;2023-04-01T02:35:10;17.73;;;7.82;;
70071;SDS011;57434;42.794;23.302;2023-04-01T02:36:15;18.30;;;7.60;;
70071;SDS011;57434;42.794;23.302;2023-04-01T02:37:18;20.30;;;8.27;;
70071;SDS011;57434;42.794;23.302;2023-04-01T02:38:21;17.02;;;8.00;;
70071;SDS011;57434;42.794;23.302;2023-04-01T02:39:22;20.35;;;8.05;;
70071;SDS011;57434;42.794;23.302;2023-04-01T02:40:24;16.35;;;7.93;;
70071;SDS011;57434;42.794;23.302;2023-04-01T02:41:26;17.95;;;7.57;;
70071;SDS011;57434;42.794;23.302;2023-04-01T02:42:29;15.38;;;7.80;;
70071;SDS011;57434;42.794;23.302;2023-04-01T02:43:31;18.27;;;7.63;;
70071;SDS011;57434;42.794;23.302;2023-04-01T02:44:33;12.63;;;7.60;;
70071;SDS011;57434;42.794;23.302;2023-04-01T02:45:34;17.55;;;7.47;;
70071;SDS011;57434;42.794;23.302;2023-04-01T02:46:37;12.38;;;7.10;;
70071;SDS011;57434;42.794;23.302;2023-04-01T02:47:39;14.30;;;7.03;;
70071;SDS011;57434;42.794;23.302;2023-04-01T02:48:41;13.05;;;7.15;;
70071;SDS011;57434;42.794;23.302;2023-04-01T02:49:43;14.60;;;6.95;;
70071;SDS011;57434;42.794;23.302;2023-04-01T02:50:45;16.20;;;7.47;;
70071;SDS011;57434;42.794;23.302;2023-04-01T02:51:47;15.27;;;7.18;;
70071;SDS011;57434;42.794;23.302;2023-04-01T02:52:49;17.75;;;6.90;;
70071;SDS011;57434;42.794;23.302;2023-04-01T02:53:50;16.65;;;6.88;;
70071;SDS011;57434;42.794;23.302;2023-04-01T02:54:52;14.60;;;7.00;;
70071;SDS011;57434;42.794;23.302;2023-04-01T02:55:54;16.40;;;6.68;;
70071;SDS011;57434;42.794;23.302;2023-04-01T02:56:56;16.50;;;6.50;;
70071;SDS011;57434;42.794;23.302;2023-04-01T02:57:58;15.00;;;6.43;;
70071;SDS011;57434;42.794;23.302;2023-04-01T02:59:00;14.20;;;6.63;;
70071;SDS011;57434;42.794;23.302;2023-04-01T03:00:02;15.48;;;6.28;;
70071;SDS011;57434;42.794;23.302;2023-04-01T03:01:05;15.93;;;7.88;;
70071;SDS011;57434;42.794;23.302;2023-04-01T03:02:07;13.65;;;6.10;;
70071;SDS011;57434;42.794;23.302;2023-04-01T03:03:09;16.63;;;7.05;;
70071;SDS011;57434;42.794;23.302;2023-04-01T03:04:11;14.20;;;6.30;;
70071;SDS011;57434;42.794;23.302;2023-04-01T03:05:13;14.07;;;7.13;;
70071;SDS011;57434;42.794;23.302;2023-04-01T03:06:15;15.07;;;6.22;;
70071;SDS011;57434;42.794;23.302;2023-04-01T03:07:18;11.88;;;6.30;;
70071;SDS011;57434;42.794;23.302;2023-04-01T03:08:20;15.03;;;6.30;;
70071;SDS011;57434;42.794;23.302;2023-04-01T03:09:22;12.93;;;6.07;;
70071;SDS011;57434;42.794;23.302;2023-04-01T03:10:24;14.30;;;5.97;;
70071;SDS011;57434;42.794;23.302;2023-04-01T03:11:25;13.50;;;5.93;;
70071;SDS011;57434;42.794;23.302;2023-04-01T03:12:27;14.10;;;6.35;;
70071;SDS011;57434;42.794;23.302;2023-04-01T03:13:29;12.43;;;5.93;;
70071;SDS011;57434;42.794;23.302;2023-04-01T03:14:31;12.57;;;5.53;;
70071;SDS011;57434;42.794;23.302;2023-04-01T03:15:32;10.60;;;5.57;;
70071;SDS011;57434;42.794;23.302;2023-04-01T03:16:35;10.63;;;5.28;;
70071;SDS011;57434;42.794;23.302;2023-04-01T03:17:37;14.85;;;6.30;;
70071;SDS011;57434;42.794;23.302;2023-04-01T03:18:39;14.23;;;6.13;;
70071;SDS011;57434;42.794;23.302;2023-04-01T03:19:41;13.30;;;6.85;;
70071;SDS011;57434;42.794;23.302;2023-04-01T03:20:43;15.93;;;6.85;;
70071;SDS011;57434;42.794;23.302;2023-04-01T03:21:44;15.10;;;7.45;;
70071;SDS011;57434;42.794;23.302;2023-04-01T03:22:46;12.65;;;7.07;;
70071;SDS011;57434;42.794;23.302;2023-04-01T03:23:48;14.88;;;6.47;;
70071;SDS011;57434;42.794;23.302;2023-04-01T03:24:50;13.52;;;6.32;;
70071;SDS011;57434;42.794;23.302;2023-04-01T03:25:52;12.13;;;6.40;;
70071;SDS011;57434;42.794;23.302;2023-04-01T03:26:54;12.13;;;6.57;;
70071;SDS011;57434;42.794;23.302;2023-04-01T03:27:56;17.73;;;6.80;;
70071;SDS011;57434;42.794;23.302;2023-04-01T03:28:58;12.00;;;6.47;;
70071;SDS011;57434;42.794;23.302;2023-04-01T03:29:59;15.32;;;7.45;;
70071;SDS011;57434;42.794;23.302;2023-04-01T03:31:01;14.60;;;8.38;;
70071;SDS011;57434;42.794;23.302;2023-04-01T03:32:03;13.70;;;7.07;;
70071;SDS011;57434;42.794;23.302;2023-04-01T03:33:05;15.02;;;6.85;;
70071;SDS011;57434;42.794;23.302;2023-04-01T03:34:08;15.02;;;6.15;;
70071;SDS011;57434;42.794;23.302;2023-04-01T03:35:10;15.80;;;7.53;;
70071;SDS011;57434;42.794;23.302;2023-04-01T03:36:12;15.27;;;7.85;;
70071;SDS011;57434;42.794;23.302;2023-04-01T03:37:14;14.15;;;7.38;;
70071;SDS011;57434;42.794;23.302;2023-04-01T03:38:15;17.52;;;7.20;;
70071;SDS011;57434;42.794;23.302;2023-04-01T03:39:17;19.33;;;8.77;;
70071;SDS011;57434;42.794;23.302;2023-04-01T03:40:20;18.77;;;9.13;;
70071;SDS011;57434;42.794;23.302;2023-04-01T03:41:22;22.27;;;9.55;;
70071;SDS011;57434;42.794;23.302;2023-04-01T03:42:24;22.23;;;8.98;;
70071;SDS011;57434;42.794;23.302;2023-04-01T03:43:26;20.63;;;9.95;;
70071;SDS011;57434;42.794;23.302;2023-04-01T03:44:31;26.52;;;10.32;;
70071;SDS011;57434;42.794;23.302;2023-04-01T03:45:36;19.63;;;8.70;;
70071;SDS011;57434;42.794;23.302;2023-04-01T03:46:48;20.88;;;9.20;;
70071;SDS011;57434;42.794;23.302;2023-04-01T03:47:50;22.60;;;8.40;;
70071;SDS011;57434;42.794;23.302;2023-04-01T03:48:51;18.15;;;7.82;;
70071;SDS011;57434;42.794;23.302;2023-04-01T03:49:53;13.67;;;6.23;;
70071;SDS011;57434;42.794;23.302;2023-04-01T03:50:55;15.40;;;7.00;;
70071;SDS011;57434;42.794;23.302;2023-04-01T03:51:57;14.48;;;7.13;;
70071;SDS011;57434;42.794;23.302;2023-04-01T03:52:59;16.20;;;7.03;;
70071;SDS011;57434;42.794;23.302;2023-04-01T03:54:01;15.00;;;6.53;;
70071;SDS011;57434;42.794;23.302;2023-04-01T03:55:02;14.70;;;6.47;;
70071;SDS011;57434;42.794;23.302;2023-04-01T03:56:05;15.55;;;6.57;;
70071;SDS011;57434;42.794;23.302;2023-04-01T03:57:08;11.13;;;5.68;;
70071;SDS011;57434;42.794;23.302;2023-04-01T03:58:10;13.88;;;6.13;;
70071;SDS011;57434;42.794;23.302;2023-04-01T03:59:12;12.75;;;5.68;;
70071;SDS011;57434;42.794;23.302;2023-04-01T04:00:14;14.00;;;6.30;;
70071;SDS011;57434;42.794;23.302;2023-04-01T04:01:19;14.52;;;5.88;;
70071;SDS011;57434;42.794;23.302;2023-04-01T04:02:22;14.02;;;6.18;;
70071;SDS011;57434;42.794;23.302;2023-04-01T04:03:24;13.00;;;5.97;;
70071;SDS011;57434;42.794;23.302;2023-04-01T04:04:26;12.13;;;6.38;;
70071;SDS011;57434;42.794;23.302;2023-04-01T04:05:28;16.45;;;6.60;;
70071;SDS011;57434;42.794;23.302;2023-04-01T04:06:30;15.63;;;7.57;;
70071;SDS011;57434;42.794;23.302;2023-04-01T04:07:36;15.48;;;7.53;;
70071;SDS011;57434;42.794;23.302;2023-04-01T04:08:39;14.77;;;7.05;;
70071;SDS011;57434;42.794;23.302;2023-04-01T04:09:41;17.83;;;7.72;;
70071;SDS011;57434;42.794;23.302;2023-04-01T04:10:43;15.37;;;7.63;;
70071;SDS011;57434;42.794;23.302;2023-04-01T04:11:45;14.27;;;7.07;;
70071;SDS011;57434;42.794;23.302;2023-04-01T04:12:48;13.07;;;6.82;;
70071;SDS011;57434;42.794;23.302;2023-04-01T04:13:50;14.48;;;7.00;;
70071;SDS011;57434;42.794;23.302;2023-04-01T04:14:52;17.02;;;8.20;;
70071;SDS011;57434;42.794;23.302;2023-04-01T04:15:54;14.68;;;6.75;;
70071;SDS011;57434;42.794;23.302;2023-04-01T04:16:55;14.60;;;6.93;;
70071;SDS011;57434;42.794;23.302;2023-04-01T04:17:57;13.80;;;6.80;;
70071;SDS011;57434;42.794;23.302;2023-04-01T04:18:59;14.90;;;7.10;;
70071;SDS011;57434;42.794;23.302;2023-04-01T04:20:01;16.15;;;7.35;;
70071;SDS011;57434;42.794;23.302;2023-04-01T04:21:03;16.30;;;7.33;;
70071;SDS011;57434;42.794;23.302;2023-04-01T04:22:05;13.02;;;7.22;;
70071;SDS011;57434;42.794;23.302;2023-04-01T04:23:07;15.35;;;7.57;;
70071;SDS011;57434;42.794;23.302;2023-04-01T04:24:09;15.05;;;6.78;;
70071;SDS011;57434;42.794;23.302;2023-04-01T04:25:11;13.45;;;6.72;;
70071;SDS011;57434;42.794;23.302;2023-04-01T04:26:13;13.45;;;7.15;;
70071;SDS011;57434;42.794;23.302;2023-04-01T04:27:16;13.63;;;6.63;;
70071;SDS011;57434;42.794;23.302;2023-04-01T04:28:18;16.27;;;6.63;;
70071;SDS011;57434;42.794;23.302;2023-04-01T04:29:19;16.92;;;6.45;;
70071;SDS011;57434;42.794;23.302;2023-04-01T04:30:21;12.32;;;5.40;;
70071;SDS011;57434;42.794;23.302;2023-04-01T04:31:24;13.07;;;5.60;;
70071;SDS011;57434;42.794;23.302;2023-04-01T04:32:26;15.27;;;5.60;;
70071;SDS011;57434;42.794;23.302;2023-04-01T04:33:30;13.90;;;5.72;;
70071;SDS011;57434;42.794;23.302;2023-04-01T04:34:32;10.70;;;4.55;;
70071;SDS011;57434;42.794;23.302;2023-04-01T04:35:34;15.32;;;4.50;;
70071;SDS011;57434;42.794;23.302;2023-04-01T04:36:36;15.20;;;6.00;;
70071;SDS011;57434;42.794;23.302;2023-04-01T04:37:38;27.10;;;10.38;;
70071;SDS011;57434;42.794;23.302;2023-04-01T04:38:39;22.38;;;9.23;;
70071;SDS011;57434;42.794;23.302;2023-04-01T04:39:41;25.33;;;10.88;;
70071;SDS011;57434;42.794;23.302;2023-04-01T04:40:43;29.17;;;9.85;;
70071;SDS011;57434;42.794;23.302;2023-04-01T04:41:45;19.87;;;8.37;;
70071;SDS011;57434;42.794;23.302;2023-04-01T04:42:47;18.67;;;6.45;;
70071;SDS011;57434;42.794;23.302;2023-04-01T04:43:53;17.90;;;6.35;;
70071;SDS011;57434;42.794;23.302;2023-04-01T04:44:56;15.93;;;6.60;;
70071;SDS011;57434;42.794;23.302;2023-04-01T04:45:58;10.45;;;5.18;;
70071;SDS011;57434;42.794;23.302;2023-04-01T04:47:00;13.48;;;5.20;;
70071;SDS011;57434;42.794;23.302;2023-04-01T04:48:02;18.33;;;5.63;;
70071;SDS011;57434;42.794;23.302;2023-04-01T04:49:05;14.75;;;5.88;;
70071;SDS011;57434;42.794;23.302;2023-04-01T04:50:08;16.50;;;6.75;;
70071;SDS011;57434;42.794;23.302;2023-04-01T04:51:12;12.20;;;5.72;;
70071;SDS011;57434;42.794;23.302;2023-04-01T04:52:18;12.50;;;5.53;;
70071;SDS011;57434;42.794;23.302;2023-04-01T04:53:20;8.88;;;4.15;;
70071;SDS011;57434;42.794;23.302;2023-04-01T04:54:22;10.40;;;5.38;;
70071;SDS011;57434;42.794;23.302;2023-04-01T04:55:24;13.75;;;5.22;;
70071;SDS011;57434;42.794;23.302;2023-04-01T04:56:25;15.43;;;7.30;;
70071;SDS011;57434;42.794;23.302;2023-04-01T04:57:27;19.55;;;8.82;;
70071;SDS011;57434;42.794;23.302;2023-04-01T04:58:29;23.15;;;9.43;;
70071;SDS011;57434;42.794;23.302;2023-04-01T04:59:31;19.55;;;10.30;;
70071;SDS011;57434;42.794;23.302;2023-04-01T05:00:33;18.33;;;9.65;;
70071;SDS011;57434;42.794;23.302;2023-04-01T05:01:34;18.70;;;8.77;;
70071;SDS011;57434;42.794;23.302;2023-04-01T05:02:36;18.67;;;8.30;;
70071;SDS011;57434;42.794;23.302;2023-04-01T05:03:38;18.27;;;8.82;;
70071;SDS011;57434;42.794;23.302;2023-04-01T05:04:41;15.30;;;8.18;;
70071;SDS011;57434;42.794;23.302;2023-04-01T05:05:48;18.60;;;8.27;;
70071;SDS011;57434;42.794;23.302;2023-04-01T05:06:51;15.20;;;8.40;;
70071;SDS011;57434;42.794;23.302;2023-04-01T05:07:53;17.63;;;8.45;;
70071;SDS011;57434;42.794;23.302;2023-04-01T05:08:55;16.00;;;8.10;;
70071;SDS011;57434;42.794;23.302;2023-04-01T05:09:57;16.08;;;7.35;;
70071;SDS011;57434;42.794;23.302;2023-04-01T05:10:58;18.77;;;8.10;;
70071;SDS011;57434;42.794;23.302;2023-04-01T05:12:01;14.70;;;7.40;;
70071;SDS011;57434;42.794;23.302;2023-04-01T05:13:03;18.17;;;8.83;;
70071;SDS011;57434;42.794;23.302;2023-04-01T05:14:05;24.50;;;10.30;;
70071;SDS011;57434;42.794;23.302;2023-04-01T05:15:07;21.05;;;9.45;;
70071;SDS011;57434;42.794;23.302;2023-04-01T05:16:13;18.50;;;8.90;;
70071;SDS011;57434;42.794;23.302;2023-04-01T05:17:17;18.23;;;9.57;;
70071;SDS011;57434;42.794;23.302;2023-04-01T05:18:19;16.75;;;8.93;;
70071;SDS011;57434;42.794;23.302;2023-04-01T05:19:22;20.45;;;9.30;;
70071;SDS011;57434;42.794;23.302;2023-04-01T05:20:24;19.58;;;9.95;;
70071;SDS011;57434;42.794;23.302;2023-04-01T05:21:25;54.97;;;23.88;;
70071;SDS011;57434;42.794;23.302;2023-04-01T05:22:27;66.60;;;27.58;;
70071;SDS011;57434;42.794;23.302;2023-04-01T05:23:30;46.33;;;19.73;;
70071;SDS011;57434;42.794;23.302;2023-04-01T05:24:32;34.90;;;16.85;;
70071;SDS011;57434;42.794;23.302;2023-04-01T05:25:37;28.38;;;13.93;;
70071;SDS011;57434;42.794;23.302;2023-04-01T05:26:39;18.08;;;10.30;;
70071;SDS011;57434;42.794;23.302;2023-04-01T05:27:41;78.88;;;28.02;;
70071;SDS011;57434;42.794;23.302;2023-04-01T05:28:42;117.43;;;39.08;;
70071;SDS011;57434;42.794;23.302;2023-04-01T05:29:44;61.90;;;21.65;;
70071;SDS011;57434;42.794;23.302;2023-04-01T05:30:46;27.20;;;11.77;;
70071;SDS011;57434;42.794;23.302;2023-04-01T05:31:48;21.50;;;9.73;;
70071;SDS011;57434;42.794;23.302;2023-04-01T05:32:50;14.40;;;7.70;;
70071;SDS011;57434;42.794;23.302;2023-04-01T05:33:52;15.83;;;8.17;;
70071;SDS011;57434;42.794;23.302;2023-04-01T05:34:54;15.20;;;7.85;;
70071;SDS011;57434;42.794;23.302;2023-04-01T05:35:55;16.77;;;8.30;;
70071;SDS011;57434;42.794;23.302;2023-04-01T05:36:58;14.32;;;8.25;;
70071;SDS011;57434;42.794;23.302;2023-04-01T05:38:00;18.40;;;8.75;;
70071;SDS011;57434;42.794;23.302;2023-04-01T05:39:02;18.50;;;8.90;;
70071;SDS011;57434;42.794;23.302;2023-04-01T05:40:04;15.10;;;8.98;;
70071;SDS011;57434;42.794;23.302;2023-04-01T05:41:06;17.25;;;7.88;;
70071;SDS011;57434;42.794;23.302;2023-04-01T05:42:08;19.95;;;8.55;;
70071;SDS011;57434;42.794;23.302;2023-04-01T05:43:10;17.80;;;8.35;;
70071;SDS011;57434;42.794;23.302;2023-04-01T05:44:12;15.77;;;8.17;;
70071;SDS011;57434;42.794;23.302;2023-04-01T05:45:14;14.85;;;8.52;;
70071;SDS011;57434;42.794;23.302;2023-04-01T05:46:15;16.55;;;8.43;;
70071;SDS011;57434;42.794;23.302;2023-04-01T05:47:17;14.63;;;8.45;;
70071;SDS011;57434;42.794;23.302;2023-04-01T05:48:19;16.95;;;8.27;;
70071;SDS011;57434;42.794;23.302;2023-04-01T05:49:21;15.25;;;7.60;;
70071;SDS011;57434;42.794;23.302;2023-04-01T05:50:23;20.00;;;9.73;;
70071;SDS011;57434;42.794;23.302;2023-04-01T05:51:24;19.92;;;8.35;;
70071;SDS011;57434;42.794;23.302;2023-04-01T05:52:26;17.48;;;8.20;;
70071;SDS011;57434;42.794;23.302;2023-04-01T05:53:28;17.77;;;8.48;;
70071;SDS011;57434;42.794;23.302;2023-04-01T05:54:30;15.90;;;8.70;;
70071;SDS011;57434;42.794;23.302;2023-04-01T05:55:32;18.80;;;8.90;;
70071;SDS011;57434;42.794;23.302;2023-04-01T05:56:36;13.27;;;7.68;;
70071;SDS011;57434;42.794;23.302;2023-04-01T05:57:38;15.80;;;8.50;;
70071;SDS011;57434;42.794;23.302;2023-04-01T05:58:40;14.57;;;7.57;;
70071;SDS011;57434;42.794;23.302;2023-04-01T05:59:42;16.55;;;7.40;;
70071;SDS011;57434;42.794;23.302;2023-04-01T06:00:43;14.60;;;7.78;;
70071;SDS011;57434;42.794;23.302;2023-04-01T06:01:46;16.48;;;7.07;;
70071;SDS011;57434;42.794;23.302;2023-04-01T06:02:48;14.18;;;7.07;;
70071;SDS011;57434;42.794;23.302;2023-04-01T06:03:50;14.27;;;5.95;;
70071;SDS011;57434;42.794;23.302;2023-04-01T06:04:54;12.47;;;6.30;;
70071;SDS011;57434;42.794;23.302;2023-04-01T06:06:05;12.52;;;6.25;;
70071;SDS011;57434;42.794;23.302;2023-04-01T06:07:16;16.02;;;7.38;;
70071;SDS011;57434;42.794;23.302;2023-04-01T06:08:19;12.93;;;5.93;;
70071;SDS011;57434;42.794;23.302;2023-04-01T06:09:26;13.48;;;6.20;;
70071;SDS011;57434;42.794;23.302;2023-04-01T06:16:25;11.63;;;5.93;;
70071;SDS011;57434;42.794;23.302;2023-04-01T06:21:00;12.73;;;4.32;;
70071;SDS011;57434;42.794;23.302;2023-04-01T06:22:47;15.57;;;5.55;;
70071;SDS011;57434;42.794;23.302;2023-04-01T06:25:17;22.88;;;9.65;;
70071;SDS011;57434;42.794;23.302;2023-04-01T06:27:52;11.23;;;4.63;;
70071;SDS011;57434;42.794;23.302;2023-04-01T06:29:44;13.55;;;5.10;;
70071;SDS011;57434;42.794;23.302;2023-04-01T06:30:42;19.20;;;5.30;;
70071;SDS011;57434;42.794;23.302;2023-04-01T06:31:56;14.37;;;5.57;;
70071;SDS011;57434;42.794;23.302;2023-04-01T06:39:11;10.80;;;4.18;;
70071;SDS011;57434;42.794;23.302;2023-04-01T06:42:42;11.10;;;5.10;;
70071;SDS011;57434;42.794;23.302;2023-04-01T06:45:16;9.60;;;4.67;;
70071;SDS011;57434;42.794;23.302;2023-04-01T06:50:41;9.35;;;4.10;;
70071;SDS011;57434;42.794;23.302;2023-04-01T06:55:12;12.18;;;3.85;;
70071;SDS011;57434;42.794;23.302;2023-04-01T06:56:37;9.73;;;3.85;;
70071;SDS011;57434;42.794;23.302;2023-04-01T06:57:53;13.35;;;3.90;;